sensor_id;sensor_type;location;lat;lon;timestamp;temperature;humidity
54960;DHT22;40860;51.710;8.736;2023-06-14T00:06:50;17.90;49.90
54960;DHT22;40860;51.710;8.736;2023-06-14T00:10:54;17.80;50.40
54960;DHT22;40860;51.710;8.736;2023-06-14T00:14:57;17.70;50.90
54960;DHT22;40860;51.710;8.736;2023-06-14T00:18:59;17.60;50.80
54960;DHT22;40860;51.710;8.736;2023-06-14T00:23:05;17.60;50.80
54960;DHT22;40860;51.710;8.736;2023-06-14T00:27:08;17.70;50.80
54960;DHT22;40860;51.710;8.736;2023-06-14T00:31:11;17.50;51.20
54960;DHT22;40860;51.710;8.736;2023-06-14T00:35:14;17.50;51.40
54960;DHT22;40860;51.710;8.736;2023-06-14T00:39:19;17.50;51.50
54960;DHT22;40860;51.710;8.736;2023-06-14T00:43:22;17.50;51.40
54960;DHT22;40860;51.710;8.736;2023-06-14T00:47:26;17.50;51.30
54960;DHT22;40860;51.710;8.736;2023-06-14T00:51:29;17.50;51.50
54960;DHT22;40860;51.710;8.736;2023-06-14T00:55:35;17.50;51.60
54960;DHT22;40860;51.710;8.736;2023-06-14T00:59:41;17.40;52.40
54960;DHT22;40860;51.710;8.736;2023-06-14T01:03:45;17.20;52.60
54960;DHT22;40860;51.710;8.736;2023-06-14T01:08:04;17.20;52.50
54960;DHT22;40860;51.710;8.736;2023-06-14T01:12:13;17.20;52.70
54960;DHT22;40860;51.710;8.736;2023-06-14T01:16:19;17.30;52.50
54960;DHT22;40860;51.710;8.736;2023-06-14T01:20:22;17.30;53.00
54960;DHT22;40860;51.710;8.736;2023-06-14T01:24:32;17.10;53.60
54960;DHT22;40860;51.710;8.736;2023-06-14T01:28:36;16.90;53.50
54960;DHT22;40860;51.710;8.736;2023-06-14T01:32:39;16.90;53.90
54960;DHT22;40860;51.710;8.736;2023-06-14T01:36:45;16.90;53.30
54960;DHT22;40860;51.710;8.736;2023-06-14T01:40:50;17.00;53.30
54960;DHT22;40860;51.710;8.736;2023-06-14T01:44:55;17.00;53.20
54960;DHT22;40860;51.710;8.736;2023-06-14T01:48:58;17.00;53.20
54960;DHT22;40860;51.710;8.736;2023-06-14T01:53:02;16.90;53.40
54960;DHT22;40860;51.710;8.736;2023-06-14T01:57:07;16.90;53.80
54960;DHT22;40860;51.710;8.736;2023-06-14T02:01:11;16.80;53.90
54960;DHT22;40860;51.710;8.736;2023-06-14T02:05:15;16.80;53.90
54960;DHT22;40860;51.710;8.736;2023-06-14T02:09:20;16.70;53.90
54960;DHT22;40860;51.710;8.736;2023-06-14T02:13:25;16.70;53.90
54960;DHT22;40860;51.710;8.736;2023-06-14T02:17:28;16.70;54.30
54960;DHT22;40860;51.710;8.736;2023-06-14T02:21:31;16.60;54.30
54960;DHT22;40860;51.710;8.736;2023-06-14T02:25:34;16.50;54.60
54960;DHT22;40860;51.710;8.736;2023-06-14T02:29:38;16.50;54.80
54960;DHT22;40860;51.710;8.736;2023-06-14T02:33:41;16.40;55.00
54960;DHT22;40860;51.710;8.736;2023-06-14T02:37:44;16.40;55.00
54960;DHT22;40860;51.710;8.736;2023-06-14T02:41:47;16.40;55.20
54960;DHT22;40860;51.710;8.736;2023-06-14T02:45:51;16.30;55.40
54960;DHT22;40860;51.710;8.736;2023-06-14T02:49:55;16.20;55.60
54960;DHT22;40860;51.710;8.736;2023-06-14T02:53:58;16.10;56.00
54960;DHT22;40860;51.710;8.736;2023-06-14T02:58:01;16.00;56.00
54960;DHT22;40860;51.710;8.736;2023-06-14T03:02:06;15.90;56.30
54960;DHT22;40860;51.710;8.736;2023-06-14T03:06:09;15.90;56.70
54960;DHT22;40860;51.710;8.736;2023-06-14T03:10:17;15.80;57.20
54960;DHT22;40860;51.710;8.736;2023-06-14T03:14:20;15.80;57.30
54960;DHT22;40860;51.710;8.736;2023-06-14T03:18:25;15.70;57.50
54960;DHT22;40860;51.710;8.736;2023-06-14T03:22:30;15.70;57.90
54960;DHT22;40860;51.710;8.736;2023-06-14T03:26:35;15.70;58.10
54960;DHT22;40860;51.710;8.736;2023-06-14T03:30:38;15.70;58.40
54960;DHT22;40860;51.710;8.736;2023-06-14T03:34:43;15.60;58.50
54960;DHT22;40860;51.710;8.736;2023-06-14T03:38:52;15.60;59.20
54960;DHT22;40860;51.710;8.736;2023-06-14T03:42:55;15.50;59.10
54960;DHT22;40860;51.710;8.736;2023-06-14T03:46:58;15.40;59.00
54960;DHT22;40860;51.710;8.736;2023-06-14T03:51:04;15.40;59.30
54960;DHT22;40860;51.710;8.736;2023-06-14T03:55:07;15.30;59.60
54960;DHT22;40860;51.710;8.736;2023-06-14T03:59:15;15.30;59.70
54960;DHT22;40860;51.710;8.736;2023-06-14T04:03:19;15.20;60.20
54960;DHT22;40860;51.710;8.736;2023-06-14T04:07:28;15.20;60.80
54960;DHT22;40860;51.710;8.736;2023-06-14T04:11:32;15.20;60.80
54960;DHT22;40860;51.710;8.736;2023-06-14T04:15:35;15.30;61.60
54960;DHT22;40860;51.710;8.736;2023-06-14T04:19:39;15.30;61.50
54960;DHT22;40860;51.710;8.736;2023-06-14T04:23:43;15.30;61.30
54960;DHT22;40860;51.710;8.736;2023-06-14T04:27:49;15.40;61.20
54960;DHT22;40860;51.710;8.736;2023-06-14T04:31:53;15.40;61.40
54960;DHT22;40860;51.710;8.736;2023-06-14T04:36:01;15.50;61.60
54960;DHT22;40860;51.710;8.736;2023-06-14T04:40:06;15.40;61.80
54960;DHT22;40860;51.710;8.736;2023-06-14T04:44:13;15.50;62.10
54960;DHT22;40860;51.710;8.736;2023-06-14T04:48:21;15.60;62.30
54960;DHT22;40860;51.710;8.736;2023-06-14T04:52:24;15.60;61.90
54960;DHT22;40860;51.710;8.736;2023-06-14T04:56:30;15.60;62.40
54960;DHT22;40860;51.710;8.736;2023-06-14T05:00:33;15.70;62.80
54960;DHT22;40860;51.710;8.736;2023-06-14T05:04:38;15.80;62.40
54960;DHT22;40860;51.710;8.736;2023-06-14T05:08:43;15.90;62.50
54960;DHT22;40860;51.710;8.736;2023-06-14T05:12:47;16.10;61.90
54960;DHT22;40860;51.710;8.736;2023-06-14T05:16:52;16.20;61.50
54960;DHT22;40860;51.710;8.736;2023-06-14T05:20:55;16.30;61.80
54960;DHT22;40860;51.710;8.736;2023-06-14T05:24:58;16.40;62.00
54960;DHT22;40860;51.710;8.736;2023-06-14T05:29:02;16.50;61.10
54960;DHT22;40860;51.710;8.736;2023-06-14T05:33:06;16.60;60.80
54960;DHT22;40860;51.710;8.736;2023-06-14T05:37:09;16.80;60.70
54960;DHT22;40860;51.710;8.736;2023-06-14T05:41:13;16.90;60.00
54960;DHT22;40860;51.710;8.736;2023-06-14T05:45:17;17.00;59.30
54960;DHT22;40860;51.710;8.736;2023-06-14T05:49:20;17.20;59.00
54960;DHT22;40860;51.710;8.736;2023-06-14T05:53:23;17.40;59.00
54960;DHT22;40860;51.710;8.736;2023-06-14T05:57:26;17.30;58.60
54960;DHT22;40860;51.710;8.736;2023-06-14T06:01:30;17.40;57.60
54960;DHT22;40860;51.710;8.736;2023-06-14T06:05:35;17.30;57.40
54960;DHT22;40860;51.710;8.736;2023-06-14T06:09:38;17.30;57.30
54960;DHT22;40860;51.710;8.736;2023-06-14T06:13:41;17.20;57.40
54960;DHT22;40860;51.710;8.736;2023-06-14T06:17:45;17.20;57.90
54960;DHT22;40860;51.710;8.736;2023-06-14T06:21:57;17.20;58.10
54960;DHT22;40860;51.710;8.736;2023-06-14T06:26:06;17.20;58.40
54960;DHT22;40860;51.710;8.736;2023-06-14T06:30:10;17.20;58.60
54960;DHT22;40860;51.710;8.736;2023-06-14T06:34:37;17.30;58.50
54960;DHT22;40860;51.710;8.736;2023-06-14T06:38:43;17.20;58.80
54960;DHT22;40860;51.710;8.736;2023-06-14T06:43:13;17.30;58.50
54960;DHT22;40860;51.710;8.736;2023-06-14T06:47:35;17.50;59.00
54960;DHT22;40860;51.710;8.736;2023-06-14T06:52:02;17.60;58.70
54960;DHT22;40860;51.710;8.736;2023-06-14T06:56:15;17.60;58.60
54960;DHT22;40860;51.710;8.736;2023-06-14T07:00:23;17.60;58.40
54960;DHT22;40860;51.710;8.736;2023-06-14T07:04:29;17.50;58.30
54960;DHT22;40860;51.710;8.736;2023-06-14T07:08:34;17.50;58.00
54960;DHT22;40860;51.710;8.736;2023-06-14T07:12:41;17.50;58.00
54960;DHT22;40860;51.710;8.736;2023-06-14T07:16:44;17.60;58.20
54960;DHT22;40860;51.710;8.736;2023-06-14T07:20:51;17.60;57.60
54960;DHT22;40860;51.710;8.736;2023-06-14T07:24:59;17.60;57.40
54960;DHT22;40860;51.710;8.736;2023-06-14T07:29:06;19.80;55.90
54960;DHT22;40860;51.710;8.736;2023-06-14T07:33:22;22.90;50.70
54960;DHT22;40860;51.710;8.736;2023-06-14T07:37:52;24.60;46.20
54960;DHT22;40860;51.710;8.736;2023-06-14T07:41:57;25.00;45.20
54960;DHT22;40860;51.710;8.736;2023-06-14T07:50:09;24.80;43.60
54960;DHT22;40860;51.710;8.736;2023-06-14T07:54:13;24.60;43.70
54960;DHT22;40860;51.710;8.736;2023-06-14T07:58:18;24.50;44.70
54960;DHT22;40860;51.710;8.736;2023-06-14T08:02:32;24.80;44.40
54960;DHT22;40860;51.710;8.736;2023-06-14T08:06:35;24.10;44.40
54960;DHT22;40860;51.710;8.736;2023-06-14T08:10:38;24.00;46.30
54960;DHT22;40860;51.710;8.736;2023-06-14T08:14:48;23.20;45.70
54960;DHT22;40860;51.710;8.736;2023-06-14T08:19:02;22.30;48.30
54960;DHT22;40860;51.710;8.736;2023-06-14T08:23:05;22.20;48.40
54960;DHT22;40860;51.710;8.736;2023-06-14T08:27:10;21.40;49.00
54960;DHT22;40860;51.710;8.736;2023-06-14T08:31:15;21.20;50.20
54960;DHT22;40860;51.710;8.736;2023-06-14T08:35:18;21.20;50.40
54960;DHT22;40860;51.710;8.736;2023-06-14T08:39:28;21.30;49.40
54960;DHT22;40860;51.710;8.736;2023-06-14T08:43:42;21.20;50.00
54960;DHT22;40860;51.710;8.736;2023-06-14T08:48:05;20.80;50.50
54960;DHT22;40860;51.710;8.736;2023-06-14T08:52:19;21.10;51.40
54960;DHT22;40860;51.710;8.736;2023-06-14T08:56:25;21.60;49.80
54960;DHT22;40860;51.710;8.736;2023-06-14T09:00:29;21.50;50.10
54960;DHT22;40860;51.710;8.736;2023-06-14T09:04:41;22.00;49.10
54960;DHT22;40860;51.710;8.736;2023-06-14T09:08:51;23.00;47.90
54960;DHT22;40860;51.710;8.736;2023-06-14T09:13:04;23.50;46.50
54960;DHT22;40860;51.710;8.736;2023-06-14T09:17:19;22.40;46.20
54960;DHT22;40860;51.710;8.736;2023-06-14T09:21:46;22.60;46.50
54960;DHT22;40860;51.710;8.736;2023-06-14T09:27:15;23.10;46.10
54960;DHT22;40860;51.710;8.736;2023-06-14T09:31:32;23.50;45.40
54960;DHT22;40860;51.710;8.736;2023-06-14T09:35:39;22.80;47.00
54960;DHT22;40860;51.710;8.736;2023-06-14T09:39:52;22.60;46.60
54960;DHT22;40860;51.710;8.736;2023-06-14T09:43:55;22.40;46.80
54960;DHT22;40860;51.710;8.736;2023-06-14T09:48:02;22.50;47.80
54960;DHT22;40860;51.710;8.736;2023-06-14T09:52:12;22.90;47.00
54960;DHT22;40860;51.710;8.736;2023-06-14T09:56:22;23.40;46.80
54960;DHT22;40860;51.710;8.736;2023-06-14T10:00:32;23.80;45.70
54960;DHT22;40860;51.710;8.736;2023-06-14T10:04:48;23.60;46.80
54960;DHT22;40860;51.710;8.736;2023-06-14T10:11:06;23.30;46.00
54960;DHT22;40860;51.710;8.736;2023-06-14T10:14:08;23.30;45.90
54960;DHT22;40860;51.710;8.736;2023-06-14T10:18:42;23.30;45.90
54960;DHT22;40860;51.710;8.736;2023-06-14T10:22:51;23.40;46.60
54960;DHT22;40860;51.710;8.736;2023-06-14T10:26:58;23.80;45.40
54960;DHT22;40860;51.710;8.736;2023-06-14T10:31:06;23.40;45.40
54960;DHT22;40860;51.710;8.736;2023-06-14T10:35:16;23.30;46.00
54960;DHT22;40860;51.710;8.736;2023-06-14T10:39:19;23.60;46.30
54960;DHT22;40860;51.710;8.736;2023-06-14T10:43:23;23.70;45.30
54960;DHT22;40860;51.710;8.736;2023-06-14T10:47:30;23.80;44.40
54960;DHT22;40860;51.710;8.736;2023-06-14T10:51:39;23.60;44.20
54960;DHT22;40860;51.710;8.736;2023-06-14T10:55:48;23.60;45.00
54960;DHT22;40860;51.710;8.736;2023-06-14T10:59:54;23.60;44.80
54960;DHT22;40860;51.710;8.736;2023-06-14T11:04:07;24.30;45.20
54960;DHT22;40860;51.710;8.736;2023-06-14T11:08:27;24.30;44.00
54960;DHT22;40860;51.710;8.736;2023-06-14T11:12:32;24.20;44.70
54960;DHT22;40860;51.710;8.736;2023-06-14T11:16:37;24.20;44.00
54960;DHT22;40860;51.710;8.736;2023-06-14T11:20:41;24.40;43.80
54960;DHT22;40860;51.710;8.736;2023-06-14T11:24:44;24.30;44.10
54960;DHT22;40860;51.710;8.736;2023-06-14T11:28:47;24.30;44.60
54960;DHT22;40860;51.710;8.736;2023-06-14T11:32:52;23.70;45.80
54960;DHT22;40860;51.710;8.736;2023-06-14T11:37:00;23.50;45.70
54960;DHT22;40860;51.710;8.736;2023-06-14T11:41:03;23.50;45.70
54960;DHT22;40860;51.710;8.736;2023-06-14T11:45:08;23.50;46.20
54960;DHT22;40860;51.710;8.736;2023-06-14T11:49:11;23.50;46.30
54960;DHT22;40860;51.710;8.736;2023-06-14T11:53:15;23.30;45.90
54960;DHT22;40860;51.710;8.736;2023-06-14T11:57:19;23.20;46.50
54960;DHT22;40860;51.710;8.736;2023-06-14T12:01:22;23.30;46.10
54960;DHT22;40860;51.710;8.736;2023-06-14T12:05:25;23.50;45.40
54960;DHT22;40860;51.710;8.736;2023-06-14T12:09:30;23.10;45.90
54960;DHT22;40860;51.710;8.736;2023-06-14T12:13:37;23.20;45.70
54960;DHT22;40860;51.710;8.736;2023-06-14T12:17:42;23.70;45.80
54960;DHT22;40860;51.710;8.736;2023-06-14T12:21:46;23.90;45.70
54960;DHT22;40860;51.710;8.736;2023-06-14T12:25:52;24.80;45.10
54960;DHT22;40860;51.710;8.736;2023-06-14T12:30:00;25.40;43.80
54960;DHT22;40860;51.710;8.736;2023-06-14T12:34:03;25.10;42.60
54960;DHT22;40860;51.710;8.736;2023-06-14T12:38:06;24.60;42.70
54960;DHT22;40860;51.710;8.736;2023-06-14T12:42:10;24.80;43.90
54960;DHT22;40860;51.710;8.736;2023-06-14T12:46:16;25.70;42.80
54960;DHT22;40860;51.710;8.736;2023-06-14T12:50:31;26.30;41.10
54960;DHT22;40860;51.710;8.736;2023-06-14T12:54:34;25.90;41.60
54960;DHT22;40860;51.710;8.736;2023-06-14T12:58:43;25.20;42.00
54960;DHT22;40860;51.710;8.736;2023-06-14T13:02:46;25.10;42.50
54960;DHT22;40860;51.710;8.736;2023-06-14T13:06:49;24.70;42.60
54960;DHT22;40860;51.710;8.736;2023-06-14T13:10:52;24.60;42.70
54960;DHT22;40860;51.710;8.736;2023-06-14T13:14:56;24.60;43.60
54960;DHT22;40860;51.710;8.736;2023-06-14T13:18:59;25.30;42.80
54960;DHT22;40860;51.710;8.736;2023-06-14T13:23:02;25.80;42.70
54960;DHT22;40860;51.710;8.736;2023-06-14T13:27:15;26.00;41.40
54960;DHT22;40860;51.710;8.736;2023-06-14T13:31:19;26.80;40.50
54960;DHT22;40860;51.710;8.736;2023-06-14T13:35:23;26.50;40.60
54960;DHT22;40860;51.710;8.736;2023-06-14T13:39:26;25.70;41.50
54960;DHT22;40860;51.710;8.736;2023-06-14T13:43:29;25.20;42.40
54960;DHT22;40860;51.710;8.736;2023-06-14T13:47:35;25.20;43.50
54960;DHT22;40860;51.710;8.736;2023-06-14T13:51:38;25.30;42.50
54960;DHT22;40860;51.710;8.736;2023-06-14T13:55:47;25.20;42.70
54960;DHT22;40860;51.710;8.736;2023-06-14T14:00:36;24.90;43.10
54960;DHT22;40860;51.710;8.736;2023-06-14T14:39:03;26.30;42.70
54960;DHT22;40860;51.710;8.736;2023-06-14T14:44:24;26.90;41.20
54960;DHT22;40860;51.710;8.736;2023-06-14T14:54:59;26.00;41.40
54960;DHT22;40860;51.710;8.736;2023-06-14T15:05:43;26.10;41.60
54960;DHT22;40860;51.710;8.736;2023-06-14T15:10:35;25.50;41.70
54960;DHT22;40860;51.710;8.736;2023-06-14T15:15:28;25.80;42.40
54960;DHT22;40860;51.710;8.736;2023-06-14T15:23:23;25.90;42.10
54960;DHT22;40860;51.710;8.736;2023-06-14T15:32:12;26.30;41.10
54960;DHT22;40860;51.710;8.736;2023-06-14T15:37:15;26.50;40.70
54960;DHT22;40860;51.710;8.736;2023-06-14T15:41:34;26.30;40.60
54960;DHT22;40860;51.710;8.736;2023-06-14T15:45:38;26.40;42.20
54960;DHT22;40860;51.710;8.736;2023-06-14T15:49:46;26.80;41.20
54960;DHT22;40860;51.710;8.736;2023-06-14T15:54:17;26.20;40.50
54960;DHT22;40860;51.710;8.736;2023-06-14T15:58:28;26.10;41.40
54960;DHT22;40860;51.710;8.736;2023-06-14T16:02:35;25.60;41.90
54960;DHT22;40860;51.710;8.736;2023-06-14T16:06:53;25.50;42.40
54960;DHT22;40860;51.710;8.736;2023-06-14T16:10:59;25.80;42.30
54960;DHT22;40860;51.710;8.736;2023-06-14T16:15:02;25.40;42.40
54960;DHT22;40860;51.710;8.736;2023-06-14T16:19:05;25.10;42.90
54960;DHT22;40860;51.710;8.736;2023-06-14T16:23:11;25.40;43.20
54960;DHT22;40860;51.710;8.736;2023-06-14T16:27:14;25.80;42.10
54960;DHT22;40860;51.710;8.736;2023-06-14T16:31:20;25.70;42.00
54960;DHT22;40860;51.710;8.736;2023-06-14T16:35:24;25.70;42.50
54960;DHT22;40860;51.710;8.736;2023-06-14T16:39:28;25.40;43.30
54960;DHT22;40860;51.710;8.736;2023-06-14T16:43:31;25.20;44.00
54960;DHT22;40860;51.710;8.736;2023-06-14T16:47:34;25.00;44.20
54960;DHT22;40860;51.710;8.736;2023-06-14T16:51:37;25.00;43.70
54960;DHT22;40860;51.710;8.736;2023-06-14T16:55:42;24.70;44.00
54960;DHT22;40860;51.710;8.736;2023-06-14T16:59:45;24.60;44.50
54960;DHT22;40860;51.710;8.736;2023-06-14T17:03:49;24.50;44.70
54960;DHT22;40860;51.710;8.736;2023-06-14T17:07:52;24.20;45.10
54960;DHT22;40860;51.710;8.736;2023-06-14T17:11:57;23.80;46.20
54960;DHT22;40860;51.710;8.736;2023-06-14T17:21:51;23.30;46.80
54960;DHT22;40860;51.710;8.736;2023-06-14T17:26:05;23.20;47.20
54960;DHT22;40860;51.710;8.736;2023-06-14T17:30:49;23.30;46.90
54960;DHT22;40860;51.710;8.736;2023-06-14T17:35:12;23.30;46.90
54960;DHT22;40860;51.710;8.736;2023-06-14T17:39:38;23.20;47.00
54960;DHT22;40860;51.710;8.736;2023-06-14T17:43:47;23.30;46.90
54960;DHT22;40860;51.710;8.736;2023-06-14T17:48:01;23.30;47.00
54960;DHT22;40860;51.710;8.736;2023-06-14T17:52:21;23.30;47.50
54960;DHT22;40860;51.710;8.736;2023-06-14T17:56:32;23.30;48.00
54960;DHT22;40860;51.710;8.736;2023-06-14T18:00:42;23.30;48.20
54960;DHT22;40860;51.710;8.736;2023-06-14T18:04:56;23.20;48.10
54960;DHT22;40860;51.710;8.736;2023-06-14T18:09:13;23.10;48.30
54960;DHT22;40860;51.710;8.736;2023-06-14T18:13:23;23.10;48.30
54960;DHT22;40860;51.710;8.736;2023-06-14T18:18:15;22.90;48.20
54960;DHT22;40860;51.710;8.736;2023-06-14T18:22:45;22.80;48.30
54960;DHT22;40860;51.710;8.736;2023-06-14T18:27:02;22.60;48.50
54960;DHT22;40860;51.710;8.736;2023-06-14T18:31:11;22.50;48.90
54960;DHT22;40860;51.710;8.736;2023-06-14T18:35:22;22.50;48.90
54960;DHT22;40860;51.710;8.736;2023-06-14T18:39:27;22.50;48.70
54960;DHT22;40860;51.710;8.736;2023-06-14T18:43:33;22.40;48.80
54960;DHT22;40860;51.710;8.736;2023-06-14T18:47:39;22.30;49.30
54960;DHT22;40860;51.710;8.736;2023-06-14T18:51:42;22.30;49.00
54960;DHT22;40860;51.710;8.736;2023-06-14T18:55:48;22.20;49.20
54960;DHT22;40860;51.710;8.736;2023-06-14T18:59:55;22.20;49.60
54960;DHT22;40860;51.710;8.736;2023-06-14T19:04:00;22.20;49.90
54960;DHT22;40860;51.710;8.736;2023-06-14T19:08:05;22.20;49.90
54960;DHT22;40860;51.710;8.736;2023-06-14T19:12:11;22.10;50.10
54960;DHT22;40860;51.710;8.736;2023-06-14T19:16:16;22.10;50.10
54960;DHT22;40860;51.710;8.736;2023-06-14T19:20:22;22.00;50.60
54960;DHT22;40860;51.710;8.736;2023-06-14T19:24:27;21.90;50.70
54960;DHT22;40860;51.710;8.736;2023-06-14T19:28:33;21.80;51.00
54960;DHT22;40860;51.710;8.736;2023-06-14T19:32:37;21.70;51.20
54960;DHT22;40860;51.710;8.736;2023-06-14T19:36:41;21.70;51.40
54960;DHT22;40860;51.710;8.736;2023-06-14T19:40:45;21.60;52.20
54960;DHT22;40860;51.710;8.736;2023-06-14T19:44:52;21.50;51.90
54960;DHT22;40860;51.710;8.736;2023-06-14T19:48:57;21.40;52.30
54960;DHT22;40860;51.710;8.736;2023-06-14T19:53:01;21.30;52.40
54960;DHT22;40860;51.710;8.736;2023-06-14T19:57:06;21.20;52.50
54960;DHT22;40860;51.710;8.736;2023-06-14T20:01:12;21.10;52.70
54960;DHT22;40860;51.710;8.736;2023-06-14T20:05:19;21.10;52.80
54960;DHT22;40860;51.710;8.736;2023-06-14T20:09:24;21.00;52.90
54960;DHT22;40860;51.710;8.736;2023-06-14T20:13:57;20.90;53.10
54960;DHT22;40860;51.710;8.736;2023-06-14T20:28:18;20.40;55.50
54960;DHT22;40860;51.710;8.736;2023-06-14T20:32:36;20.10;55.80
54960;DHT22;40860;51.710;8.736;2023-06-14T20:36:51;20.10;55.80
54960;DHT22;40860;51.710;8.736;2023-06-14T20:41:15;20.00;56.10
54960;DHT22;40860;51.710;8.736;2023-06-14T20:45:36;19.80;56.80
54960;DHT22;40860;51.710;8.736;2023-06-14T20:49:55;19.60;57.30
54960;DHT22;40860;51.710;8.736;2023-06-14T20:54:07;19.50;58.00
54960;DHT22;40860;51.710;8.736;2023-06-14T20:58:44;19.30;58.60
54960;DHT22;40860;51.710;8.736;2023-06-14T21:03:40;19.20;59.30
54960;DHT22;40860;51.710;8.736;2023-06-14T21:08:13;19.10;59.70
54960;DHT22;40860;51.710;8.736;2023-06-14T21:12:43;18.90;60.50
54960;DHT22;40860;51.710;8.736;2023-06-14T21:17:20;18.80;61.00
54960;DHT22;40860;51.710;8.736;2023-06-14T21:21:31;18.70;61.70
54960;DHT22;40860;51.710;8.736;2023-06-14T21:25:58;18.60;62.30
54960;DHT22;40860;51.710;8.736;2023-06-14T21:30:08;18.50;62.70
54960;DHT22;40860;51.710;8.736;2023-06-14T21:34:21;18.40;64.20
54960;DHT22;40860;51.710;8.736;2023-06-14T21:38:28;18.30;63.90
54960;DHT22;40860;51.710;8.736;2023-06-14T21:42:51;18.40;63.80
54960;DHT22;40860;51.710;8.736;2023-06-14T21:47:12;18.40;63.70
54960;DHT22;40860;51.710;8.736;2023-06-14T21:51:33;18.30;64.30
54960;DHT22;40860;51.710;8.736;2023-06-14T21:55:50;18.10;65.00
54960;DHT22;40860;51.710;8.736;2023-06-14T21:59:59;18.00;65.30
54960;DHT22;40860;51.710;8.736;2023-06-14T22:04:26;18.00;65.80
54960;DHT22;40860;51.710;8.736;2023-06-14T22:08:46;17.90;66.10
54960;DHT22;40860;51.710;8.736;2023-06-14T22:13:09;17.80;66.50
54960;DHT22;40860;51.710;8.736;2023-06-14T22:17:16;17.60;67.90
54960;DHT22;40860;51.710;8.736;2023-06-14T22:21:29;17.40;68.40
54960;DHT22;40860;51.710;8.736;2023-06-14T22:26:16;17.20;70.00
54960;DHT22;40860;51.710;8.736;2023-06-14T22:31:04;17.10;70.40
54960;DHT22;40860;51.710;8.736;2023-06-14T22:40:57;16.90;71.70
54960;DHT22;40860;51.710;8.736;2023-06-14T22:45:08;16.80;72.60
54960;DHT22;40860;51.710;8.736;2023-06-14T22:49:18;16.70;72.50
54960;DHT22;40860;51.710;8.736;2023-06-14T22:53:22;16.70;73.10
54960;DHT22;40860;51.710;8.736;2023-06-14T22:57:26;16.60;73.00
54960;DHT22;40860;51.710;8.736;2023-06-14T23:01:29;16.60;73.00
54960;DHT22;40860;51.710;8.736;2023-06-14T23:05:34;16.50;73.90
54960;DHT22;40860;51.710;8.736;2023-06-14T23:09:37;16.50;73.10
54960;DHT22;40860;51.710;8.736;2023-06-14T23:13:41;16.50;73.70
54960;DHT22;40860;51.710;8.736;2023-06-14T23:17:45;16.50;73.10
54960;DHT22;40860;51.710;8.736;2023-06-14T23:21:53;16.60;72.10
54960;DHT22;40860;51.710;8.736;2023-06-14T23:26:00;16.70;71.40
54960;DHT22;40860;51.710;8.736;2023-06-14T23:30:04;16.70;71.60
54960;DHT22;40860;51.710;8.736;2023-06-14T23:34:08;16.60;72.40
54960;DHT22;40860;51.710;8.736;2023-06-14T23:38:12;16.40;72.60
54960;DHT22;40860;51.710;8.736;2023-06-14T23:42:17;16.40;72.50
54960;DHT22;40860;51.710;8.736;2023-06-14T23:46:20;16.20;73.90
54960;DHT22;40860;51.710;8.736;2023-06-14T23:50:25;16.10;74.50
54960;DHT22;40860;51.710;8.736;2023-06-14T23:54:29;16.00;75.10
54960;DHT22;40860;51.710;8.736;2023-06-14T23:58:34;15.90;75.90
